createdAt,value
2022-09-26T00:00:05.638Z,4.78
2022-09-26T00:02:32.299Z,5.07
2022-09-26T00:04:58.875Z,4.97
2022-09-26T00:07:25.509Z,5.28
2022-09-26T00:09:52.061Z,5.65
2022-09-26T00:12:18.606Z,6.50
2022-09-26T00:14:45.160Z,5.03
2022-09-26T00:17:11.769Z,4.53
2022-09-26T00:19:40.846Z,6.22
2022-09-26T00:22:07.411Z,4.40
2022-09-26T00:24:34.164Z,3.75
2022-09-26T00:27:00.892Z,4.25
2022-09-26T00:29:27.517Z,4.85
2022-09-26T00:31:54.108Z,4.50
2022-09-26T00:34:20.858Z,4.45
2022-09-26T00:36:47.451Z,4.40
2022-09-26T00:39:14.758Z,5.22
2022-09-26T00:41:41.421Z,5.10
2022-09-26T00:44:46.185Z,5.12
2022-09-26T00:47:27.183Z,5.43
2022-09-26T00:49:59.650Z,5.53
2022-09-26T00:52:29.018Z,5.50
2022-09-26T00:54:56.214Z,4.30
2022-09-26T00:57:24.956Z,4.97
2022-09-26T00:59:55.060Z,4.80
2022-09-26T01:02:22.043Z,4.62
2022-09-26T01:04:48.785Z,5.18
2022-09-26T01:07:18.233Z,5.47
2022-09-26T01:09:44.774Z,4.68
2022-09-26T01:12:14.211Z,4.65
2022-09-26T01:14:41.188Z,3.97
2022-09-26T01:17:07.942Z,4.75
2022-09-26T01:19:52.292Z,4.35
2022-09-26T01:22:40.873Z,4.22
2022-09-26T01:25:36.127Z,5.07
2022-09-26T01:28:36.897Z,3.87
2022-09-26T01:31:25.097Z,4.70
2022-09-26T01:34:32.050Z,3.90
2022-09-26T01:37:14.470Z,4.62
2022-09-26T01:39:40.914Z,4.07
2022-09-26T01:42:23.825Z,4.22
2022-09-26T01:44:51.619Z,5.00
2022-09-26T01:47:52.986Z,5.22
2022-09-26T01:50:30.029Z,4.00
2022-09-26T01:53:21.061Z,5.35
2022-09-26T01:55:50.553Z,4.12
2022-09-26T01:58:27.507Z,3.83
2022-09-26T02:00:54.816Z,3.60
2022-09-26T02:03:22.510Z,4.00
2022-09-26T02:05:58.476Z,4.45
2022-09-26T02:08:34.244Z,4.20
2022-09-26T02:11:04.743Z,4.30
2022-09-26T02:13:52.133Z,5.15
2022-09-26T02:16:25.943Z,3.80
2022-09-26T02:19:02.995Z,4.32
2022-09-26T02:21:29.929Z,4.78
2022-09-26T02:23:56.500Z,4.30
2022-09-26T02:26:23.703Z,4.95
2022-09-26T02:28:50.459Z,4.45
2022-09-26T02:31:22.063Z,4.43
2022-09-26T02:33:52.331Z,5.28
2022-09-26T02:36:19.324Z,4.50
2022-09-26T02:38:45.909Z,4.50
2022-09-26T02:41:52.160Z,6.03
2022-09-26T02:44:20.792Z,3.95
2022-09-26T02:47:25.596Z,5.05
2022-09-26T02:50:02.357Z,4.43
2022-09-26T02:52:46.307Z,4.87
2022-09-26T02:55:27.175Z,4.15
2022-09-26T02:58:05.905Z,3.85
2022-09-26T03:01:20.206Z,3.95
2022-09-26T03:03:55.110Z,6.47
2022-09-26T03:06:24.518Z,4.95
2022-09-26T03:08:51.209Z,3.50
2022-09-26T03:11:20.820Z,4.00
2022-09-26T03:13:53.155Z,4.00
2022-09-26T03:16:20.375Z,5.10
2022-09-26T03:18:55.380Z,5.05
2022-09-26T03:21:22.180Z,3.95
2022-09-26T03:23:49.791Z,4.07
2022-09-26T03:26:18.998Z,4.45
2022-09-26T03:28:45.733Z,4.50
2022-09-26T03:31:12.465Z,4.00
2022-09-26T03:33:41.037Z,5.07
2022-09-26T03:36:09.582Z,4.20
2022-09-26T03:38:36.199Z,3.65
2022-09-26T03:41:02.895Z,5.47
2022-09-26T03:43:29.760Z,5.80
2022-09-26T03:45:56.556Z,4.37
2022-09-26T03:48:23.448Z,4.62
2022-09-26T03:50:50.041Z,4.10
2022-09-26T03:53:16.606Z,4.32
2022-09-26T03:55:43.248Z,4.50
2022-09-26T03:58:10.297Z,6.50
2022-09-26T04:00:38.891Z,3.90
2022-09-26T04:03:08.187Z,3.85
2022-09-26T04:05:34.946Z,4.43
2022-09-26T04:08:03.088Z,5.28
2022-09-26T04:10:29.670Z,3.95
2022-09-26T04:12:57.033Z,4.78
2022-09-26T04:15:23.573Z,4.53
2022-09-26T04:17:50.271Z,5.03
2022-09-26T04:20:16.904Z,5.18
2022-09-26T04:22:43.480Z,4.25
2022-09-26T04:25:10.347Z,4.93
2022-09-26T04:27:38.010Z,4.62
2022-09-26T04:30:04.959Z,5.07
2022-09-26T04:32:31.585Z,5.57
2022-09-26T04:35:00.829Z,5.30
2022-09-26T04:37:27.590Z,4.70
2022-09-26T04:39:54.575Z,4.82
2022-09-26T04:42:21.686Z,6.18
2022-09-26T04:44:48.255Z,4.50
2022-09-26T04:47:14.826Z,4.82
2022-09-26T04:49:41.380Z,6.45
2022-09-26T04:52:07.963Z,4.45
2022-09-26T04:54:37.419Z,4.97
2022-09-26T04:57:05.773Z,5.32
2022-09-26T04:59:32.912Z,4.90
2022-09-26T05:01:59.502Z,7.12
2022-09-26T05:04:27.743Z,8.05
2022-09-26T05:06:57.930Z,6.45
2022-09-26T05:09:25.158Z,5.00
2022-09-26T05:11:52.154Z,4.72
2022-09-26T05:14:20.822Z,5.57
2022-09-26T05:16:47.595Z,5.15
2022-09-26T05:19:14.500Z,6.03
2022-09-26T05:21:43.032Z,4.03
2022-09-26T05:24:28.244Z,4.68
2022-09-26T05:26:55.576Z,4.57
2022-09-26T05:29:22.171Z,5.25
2022-09-26T05:31:48.906Z,5.35
2022-09-26T05:34:19.610Z,5.07
2022-09-26T05:36:46.970Z,4.78
2022-09-26T05:39:32.107Z,5.95
2022-09-26T05:41:58.934Z,5.18
2022-09-26T05:44:25.826Z,5.25
2022-09-26T05:46:52.648Z,4.57
2022-09-26T05:49:19.308Z,5.37
2022-09-26T05:51:46.519Z,6.12
2022-09-26T05:54:15.583Z,6.62
2022-09-26T05:56:42.123Z,5.62
2022-09-26T05:59:09.064Z,9.70
2022-09-26T06:01:36.113Z,9.63
2022-09-26T06:04:05.671Z,11.63
2022-09-26T06:06:32.524Z,11.68
2022-09-26T06:09:00.036Z,11.63
2022-09-26T06:11:32.368Z,10.68
2022-09-26T06:14:01.846Z,9.35
2022-09-26T06:16:28.702Z,10.63
2022-09-26T06:18:55.988Z,7.90
2022-09-26T06:21:23.108Z,8.02
2022-09-26T06:23:49.806Z,6.85
2022-09-26T06:26:20.093Z,7.90
2022-09-26T06:28:47.458Z,6.97
2022-09-26T06:31:16.866Z,7.15
2022-09-26T06:33:43.602Z,7.45
2022-09-26T06:36:10.922Z,9.00
2022-09-26T06:38:38.167Z,6.90
2022-09-26T06:41:07.624Z,6.60
2022-09-26T06:43:34.552Z,8.40
2022-09-26T06:46:01.098Z,7.15
2022-09-26T06:48:27.749Z,5.90
2022-09-26T06:50:55.472Z,6.57
2022-09-26T06:53:22.041Z,7.75
2022-09-26T06:55:49.507Z,7.75
2022-09-26T06:58:16.087Z,7.75
2022-09-26T07:00:42.754Z,8.35
2022-09-26T07:03:09.451Z,7.78
2022-09-26T07:05:36.050Z,8.35
2022-09-26T07:08:03.163Z,8.80
2022-09-26T07:10:30.536Z,10.25
2022-09-26T07:13:05.354Z,8.23
2022-09-26T07:15:33.439Z,8.77
2022-09-26T07:18:02.515Z,7.95
2022-09-26T07:20:32.129Z,12.15
2022-09-26T07:23:05.386Z,9.05
2022-09-26T07:25:32.153Z,8.75
2022-09-26T07:27:59.006Z,9.63
2022-09-26T07:30:25.795Z,8.48
2022-09-26T07:32:52.402Z,8.63
2022-09-26T07:35:19.241Z,9.73
2022-09-26T07:37:46.187Z,10.20
2022-09-26T07:40:12.837Z,8.80
2022-09-26T07:42:39.565Z,10.10
2022-09-26T07:45:28.729Z,9.57
2022-09-26T07:48:11.895Z,9.73
2022-09-26T07:50:38.502Z,10.10
2022-09-26T07:53:05.085Z,8.13
2022-09-26T07:55:31.738Z,9.45
2022-09-26T07:57:59.251Z,8.88
2022-09-26T08:00:26.416Z,9.38
2022-09-26T08:02:53.239Z,9.90
2022-09-26T08:05:20.123Z,10.93
2022-09-26T08:07:47.614Z,10.88
2022-09-26T08:10:22.142Z,9.57
2022-09-26T08:12:48.820Z,11.15
2022-09-26T08:15:15.629Z,10.13
2022-09-26T08:17:43.367Z,10.50
2022-09-26T08:20:10.262Z,10.10
2022-09-26T08:22:37.160Z,10.93
2022-09-26T08:25:04.279Z,9.32
2022-09-26T08:27:34.532Z,10.90
2022-09-26T08:30:06.640Z,8.95
2022-09-26T08:32:37.187Z,8.95
2022-09-26T08:35:03.886Z,10.65
2022-09-26T08:37:31.196Z,8.40
2022-09-26T08:39:57.878Z,7.32
2022-09-26T08:42:28.654Z,11.00
2022-09-26T08:45:28.410Z,8.18
2022-09-26T08:48:14.822Z,9.43
2022-09-26T08:50:56.989Z,8.63
2022-09-26T08:53:28.639Z,9.23
2022-09-26T08:55:55.679Z,6.57
2022-09-26T08:58:44.647Z,7.32
2022-09-26T09:01:14.867Z,8.38
2022-09-26T09:03:55.578Z,7.03
2022-09-26T09:06:22.165Z,7.72
2022-09-26T09:08:51.829Z,8.48
2022-09-26T09:11:43.273Z,8.05
2022-09-26T09:14:33.165Z,7.15
2022-09-26T09:17:14.132Z,9.35
2022-09-26T09:19:52.708Z,8.02
2022-09-26T09:22:31.285Z,7.55
2022-09-26T09:25:04.927Z,9.25
2022-09-26T09:28:03.970Z,8.02
2022-09-26T09:30:39.952Z,6.87
2022-09-26T09:35:51.472Z,8.88
2022-09-26T09:38:20.644Z,7.00
2022-09-26T09:40:57.311Z,8.02
2022-09-26T09:43:30.830Z,6.35
2022-09-26T09:46:06.306Z,6.62
2022-09-26T09:48:33.027Z,6.25
2022-09-26T09:51:12.350Z,6.95
2022-09-26T09:53:44.717Z,7.07
2022-09-26T09:56:22.589Z,7.47
2022-09-26T09:58:58.726Z,4.95
2022-09-26T10:01:28.552Z,7.00
2022-09-26T10:03:57.597Z,6.53
2022-09-26T10:06:46.067Z,6.37
2022-09-26T10:09:40.747Z,8.27
2022-09-26T10:12:19.265Z,4.40
2022-09-26T10:15:11.752Z,5.22
2022-09-26T10:17:40.443Z,5.07
2022-09-26T10:20:15.086Z,5.70
2022-09-26T10:22:45.054Z,5.55
2022-09-26T10:25:19.553Z,8.45
2022-09-26T10:27:48.030Z,6.00
2022-09-26T10:30:19.919Z,6.22
2022-09-26T10:32:49.847Z,5.32
2022-09-26T10:35:43.648Z,5.60
2022-09-26T10:38:23.792Z,7.57
2022-09-26T10:40:55.390Z,8.40
2022-09-26T10:43:33.046Z,8.13
2022-09-26T10:46:04.211Z,7.35
2022-09-26T10:48:42.948Z,6.90
2022-09-26T10:51:09.516Z,6.20
2022-09-26T10:53:37.912Z,7.62
2022-09-26T10:56:10.959Z,6.80
2022-09-26T10:58:43.160Z,6.28
2022-09-26T11:01:25.652Z,4.95
2022-09-26T11:03:58.462Z,4.93
2022-09-26T11:06:33.222Z,6.25
2022-09-26T11:09:02.542Z,5.90
2022-09-26T11:11:37.596Z,3.80
2022-09-26T11:14:07.536Z,3.77
2022-09-26T11:16:43.449Z,4.85
2022-09-26T11:22:05.820Z,4.55
2022-09-26T11:24:45.956Z,5.87
2022-09-26T11:27:24.124Z,5.43
2022-09-26T11:30:02.137Z,6.72
2022-09-26T11:32:42.197Z,3.37
2022-09-26T11:35:30.629Z,5.53
2022-09-26T11:38:05.701Z,5.25
2022-09-26T11:40:32.491Z,3.50
2022-09-26T11:43:25.410Z,4.97
2022-09-26T11:46:15.408Z,5.30
2022-09-26T11:49:01.032Z,5.95
2022-09-26T11:51:39.005Z,8.67
2022-09-26T11:54:32.498Z,4.22
2022-09-26T11:57:01.613Z,4.78
2022-09-26T12:00:02.172Z,6.93
2022-09-26T12:03:07.136Z,7.87
2022-09-26T12:05:44.415Z,6.93
2022-09-26T12:08:23.868Z,3.37
2022-09-26T12:10:50.292Z,5.50
2022-09-26T12:13:52.500Z,5.75
2022-09-26T12:16:22.208Z,3.28
2022-09-26T12:19:15.555Z,4.53
2022-09-26T12:22:20.686Z,4.43
2022-09-26T12:25:22.164Z,5.15
2022-09-26T12:28:10.221Z,5.57
2022-09-26T12:30:44.832Z,3.10
2022-09-26T12:33:30.157Z,3.75
2022-09-26T12:36:09.076Z,4.93
2022-09-26T12:39:00.452Z,5.97
2022-09-26T12:41:51.777Z,5.47
2022-09-26T12:44:56.643Z,5.82
2022-09-26T12:47:39.215Z,4.22
2022-09-26T12:50:24.936Z,3.92
2022-09-26T12:53:18.223Z,7.05
2022-09-26T12:55:54.391Z,4.00
2022-09-26T12:58:27.081Z,2.97
2022-09-26T13:01:28.863Z,4.10
2022-09-26T13:04:14.899Z,4.40
2022-09-26T13:07:14.781Z,4.18
2022-09-26T13:10:03.041Z,3.80
2022-09-26T13:12:42.481Z,4.78
2022-09-26T13:15:19.393Z,10.15
2022-09-26T13:17:48.002Z,29.23
2022-09-26T13:20:21.579Z,26.33
2022-09-26T13:23:02.238Z,13.00
2022-09-26T13:25:39.830Z,21.12
2022-09-26T13:28:07.193Z,14.40
2022-09-26T13:30:38.899Z,14.63
2022-09-26T13:33:33.436Z,13.23
2022-09-26T13:36:00.833Z,11.32
2022-09-26T13:38:52.937Z,11.65
2022-09-26T13:41:44.784Z,16.85
2022-09-26T13:44:45.700Z,11.30
2022-09-26T13:47:27.365Z,12.98
2022-09-26T13:50:08.526Z,9.43
2022-09-26T13:52:45.173Z,7.62
2022-09-26T13:55:19.298Z,10.30
2022-09-26T13:58:03.931Z,7.00
2022-09-26T14:00:30.510Z,6.45
2022-09-26T14:03:19.192Z,7.55
2022-09-26T14:05:52.643Z,10.27
2022-09-26T14:08:43.988Z,6.25
2022-09-26T14:11:30.324Z,6.22
2022-09-26T14:14:18.976Z,7.68
2022-09-26T14:16:51.275Z,8.27
2022-09-26T14:19:28.956Z,9.05
2022-09-26T14:22:05.933Z,4.05
2022-09-26T14:24:33.502Z,6.05
2022-09-26T14:27:05.168Z,4.40
2022-09-26T14:29:36.087Z,5.90
2022-09-26T14:32:10.438Z,5.28
2022-09-26T14:34:43.785Z,4.72
2022-09-26T14:37:25.459Z,4.50
2022-09-26T14:39:52.907Z,7.93
2022-09-26T14:42:24.422Z,8.18
2022-09-26T14:45:02.043Z,4.03
2022-09-26T14:47:30.844Z,7.10
2022-09-26T14:50:05.616Z,8.07
2022-09-26T14:52:32.755Z,4.07
2022-09-26T14:55:01.135Z,3.42
2022-09-26T14:57:30.783Z,5.55
2022-09-26T14:59:58.947Z,4.07
2022-09-26T15:02:28.153Z,6.47
2022-09-26T15:05:09.910Z,5.03
2022-09-26T15:07:41.678Z,7.75
2022-09-26T15:10:21.909Z,4.50
2022-09-26T15:12:57.241Z,5.28
2022-09-26T15:15:42.105Z,5.00
2022-09-26T15:18:35.614Z,5.40
2022-09-26T15:21:28.420Z,4.62
2022-09-26T15:23:58.293Z,3.87
2022-09-26T15:26:32.132Z,4.20
2022-09-26T15:28:58.688Z,4.25
2022-09-26T15:31:28.013Z,5.03
2022-09-26T15:33:55.698Z,3.92
2022-09-26T15:36:22.249Z,6.18
2022-09-26T15:38:49.311Z,4.43
2022-09-26T15:41:37.405Z,7.25
2022-09-26T15:44:07.005Z,5.45
2022-09-26T15:46:33.671Z,4.35
2022-09-26T15:49:00.608Z,5.20
2022-09-26T15:51:33.086Z,6.20
2022-09-26T15:54:05.057Z,4.97
2022-09-26T15:56:45.373Z,6.03
2022-09-26T15:59:14.767Z,5.15
2022-09-26T16:01:42.837Z,4.22
2022-09-26T16:04:14.208Z,4.62
2022-09-26T16:06:41.882Z,5.32
2022-09-26T16:09:11.329Z,6.43
2022-09-26T16:11:46.322Z,6.28
2022-09-26T16:14:41.485Z,5.50
2022-09-26T16:17:22.830Z,4.72
2022-09-26T16:19:54.132Z,5.40
2022-09-26T16:22:26.695Z,7.93
2022-09-26T16:24:53.281Z,4.10
2022-09-26T16:27:24.490Z,4.22
2022-09-26T16:29:52.436Z,3.53
2022-09-26T16:32:19.753Z,4.80
2022-09-26T16:34:46.551Z,4.60
2022-09-26T16:37:19.817Z,3.60
2022-09-26T16:39:56.008Z,6.97
2022-09-26T16:42:25.535Z,3.40
2022-09-26T16:44:54.334Z,4.45
2022-09-26T16:47:26.584Z,6.32
2022-09-26T16:49:53.161Z,4.95
2022-09-26T16:52:28.902Z,3.90
2022-09-26T16:54:57.119Z,5.30
2022-09-26T16:57:29.409Z,4.72
2022-09-26T17:00:18.713Z,3.83
2022-09-26T17:02:45.495Z,3.37
2022-09-26T17:05:18.699Z,4.78
2022-09-26T17:07:46.298Z,6.50
2022-09-26T17:10:12.982Z,3.87
2022-09-26T17:12:39.739Z,5.75
2022-09-26T17:15:07.517Z,4.60
2022-09-26T17:17:34.261Z,4.30
2022-09-26T17:20:01.920Z,4.47
2022-09-26T17:22:28.570Z,5.12
2022-09-26T17:24:55.229Z,3.22
2022-09-26T17:27:27.152Z,3.85
2022-09-26T17:29:56.064Z,3.30
2022-09-26T17:32:31.082Z,3.83
2022-09-26T17:35:01.079Z,8.20
2022-09-26T17:37:28.333Z,5.82
2022-09-26T17:39:55.291Z,3.75
2022-09-26T17:42:23.205Z,4.65
2022-09-26T17:44:50.503Z,6.07
2022-09-26T17:47:18.205Z,4.90
2022-09-26T17:49:48.218Z,5.87
2022-09-26T17:52:29.455Z,5.05
2022-09-26T17:55:01.342Z,4.10
2022-09-26T17:57:30.320Z,7.07
2022-09-26T17:59:57.408Z,3.87
2022-09-26T18:02:44.502Z,5.90
2022-09-26T18:05:45.617Z,5.15
2022-09-26T18:08:23.061Z,3.90
2022-09-26T18:10:55.031Z,5.43
2022-09-26T18:13:22.654Z,4.62
2022-09-26T18:15:53.125Z,6.78
2022-09-26T18:18:21.087Z,6.62
2022-09-26T18:20:49.350Z,5.82
2022-09-26T18:23:18.981Z,5.68
2022-09-26T18:25:47.435Z,3.92
2022-09-26T18:28:15.517Z,4.95
2022-09-26T18:30:43.026Z,6.15
2022-09-26T18:33:09.973Z,6.62
2022-09-26T18:35:36.600Z,8.50
2022-09-26T18:38:03.458Z,5.95
2022-09-26T18:40:30.203Z,5.10
2022-09-26T18:42:57.814Z,6.55
2022-09-26T18:45:28.996Z,5.75
2022-09-26T18:47:55.567Z,5.95
2022-09-26T18:50:31.031Z,5.20
2022-09-26T18:52:57.593Z,7.10
2022-09-26T18:55:43.377Z,7.43
2022-09-26T18:58:27.871Z,6.07
2022-09-26T19:01:15.795Z,5.22
2022-09-26T19:03:47.057Z,5.32
2022-09-26T19:06:16.090Z,5.85
2022-09-26T19:08:43.710Z,6.55
2022-09-26T19:11:23.430Z,8.43
2022-09-26T19:13:51.677Z,7.53
2022-09-26T19:16:18.515Z,5.97
2022-09-26T19:18:45.418Z,6.05
2022-09-26T19:21:28.283Z,6.07
2022-09-26T19:23:54.881Z,6.20
2022-09-26T19:26:32.105Z,6.12
2022-09-26T19:28:58.954Z,8.10
2022-09-26T19:31:26.409Z,6.10
2022-09-26T19:33:53.164Z,6.22
2022-09-26T19:36:19.770Z,7.53
2022-09-26T19:38:46.558Z,6.82
2022-09-26T19:41:13.262Z,6.97
2022-09-26T19:43:42.875Z,6.47
2022-09-26T19:46:17.150Z,9.27
2022-09-26T19:48:46.877Z,8.48
2022-09-26T19:51:14.667Z,9.88
2022-09-26T19:53:41.301Z,6.07
2022-09-26T19:56:08.011Z,8.13
2022-09-26T19:58:34.813Z,8.60
2022-09-26T20:01:06.749Z,7.12
2022-09-26T20:03:35.499Z,8.73
2022-09-26T20:06:02.371Z,7.40
2022-09-26T20:08:28.935Z,6.60
2022-09-26T20:10:55.775Z,6.65
2022-09-26T20:13:22.369Z,7.72
2022-09-26T20:15:49.087Z,8.90
2022-09-26T20:18:20.746Z,14.25
2022-09-26T20:20:55.716Z,6.03
2022-09-26T20:23:26.393Z,8.97
2022-09-26T20:25:53.806Z,9.32
2022-09-26T20:28:20.726Z,7.32
2022-09-26T20:30:54.359Z,7.62
2022-09-26T20:33:24.643Z,7.03
2022-09-26T20:36:00.267Z,7.00
2022-09-26T20:38:37.884Z,5.65
2022-09-26T20:41:16.450Z,8.07
2022-09-26T20:43:44.339Z,6.47
2022-09-26T20:46:11.057Z,7.68
2022-09-26T20:48:37.849Z,8.13
2022-09-26T20:51:04.835Z,6.35
2022-09-26T20:53:31.502Z,6.22
2022-09-26T20:55:58.176Z,6.03
2022-09-26T20:58:24.726Z,7.95
2022-09-26T21:00:53.239Z,5.90
2022-09-26T21:03:21.960Z,7.35
2022-09-26T21:05:48.737Z,6.22
2022-09-26T21:08:26.294Z,6.95
2022-09-26T21:10:53.000Z,7.87
2022-09-26T21:13:19.539Z,6.60
2022-09-26T21:15:46.132Z,7.65
2022-09-26T21:18:35.611Z,7.87
2022-09-26T21:21:07.485Z,7.90
2022-09-26T21:23:39.014Z,6.97
2022-09-26T21:26:05.744Z,7.43
2022-09-26T21:28:32.369Z,6.75
2022-09-26T21:31:07.811Z,6.60
2022-09-26T21:33:34.420Z,8.25
2022-09-26T21:36:01.192Z,8.00
2022-09-26T21:38:27.755Z,7.55
2022-09-26T21:40:56.126Z,5.75
2022-09-26T21:43:23.256Z,5.45
2022-09-26T21:45:50.083Z,8.27
2022-09-26T21:48:16.792Z,6.05
2022-09-26T21:50:52.874Z,7.35
2022-09-26T21:53:24.609Z,6.72
2022-09-26T21:55:52.900Z,6.43
2022-09-26T21:58:23.061Z,5.93
2022-09-26T22:00:50.867Z,7.15
2022-09-26T22:03:17.645Z,8.18
2022-09-26T22:05:44.281Z,8.00
2022-09-26T22:08:10.853Z,7.35
2022-09-26T22:10:37.500Z,6.37
2022-09-26T22:13:04.388Z,6.50
2022-09-26T22:15:33.727Z,7.47
2022-09-26T22:18:01.588Z,7.85
2022-09-26T22:20:28.190Z,8.23
2022-09-26T22:22:55.544Z,5.82
2022-09-26T22:25:22.113Z,4.75
2022-09-26T22:27:48.675Z,6.57
2022-09-26T22:30:15.476Z,6.78
2022-09-26T22:32:42.104Z,6.78
2022-09-26T22:35:08.744Z,8.50
2022-09-26T22:37:35.308Z,6.43
2022-09-26T22:40:02.564Z,7.12
2022-09-26T22:42:29.198Z,7.40
2022-09-26T22:45:01.871Z,6.45
2022-09-26T22:47:28.472Z,6.30
2022-09-26T22:49:55.070Z,5.72
2022-09-26T22:52:21.598Z,6.62
2022-09-26T22:54:48.149Z,5.70
2022-09-26T22:57:15.220Z,6.62
2022-09-26T22:59:44.225Z,8.27
2022-09-26T23:02:10.811Z,6.55
2022-09-26T23:04:49.793Z,5.78
2022-09-26T23:07:17.979Z,6.22
2022-09-26T23:09:44.633Z,5.22
2022-09-26T23:12:11.197Z,6.30
2022-09-26T23:14:38.411Z,7.45
2022-09-26T23:17:05.608Z,6.85
2022-09-26T23:19:32.633Z,7.53
2022-09-26T23:21:59.482Z,6.28
2022-09-26T23:24:26.094Z,6.32
2022-09-26T23:26:52.718Z,6.93
2022-09-26T23:29:19.268Z,7.72
2022-09-26T23:31:45.856Z,7.22
2022-09-26T23:34:12.412Z,6.72
2022-09-26T23:36:39.015Z,7.05
2022-09-26T23:39:05.703Z,8.45
2022-09-26T23:41:32.521Z,7.03
2022-09-26T23:43:59.112Z,6.57
2022-09-26T23:46:25.826Z,6.82
2022-09-26T23:48:52.596Z,7.37
2022-09-26T23:51:19.197Z,5.12
2022-09-26T23:53:46.486Z,6.25
2022-09-26T23:56:14.095Z,8.52
2022-09-26T23:58:40.946Z,6.32
